createdAt,value
2022-11-09T00:00:00.324Z,7.1
2022-11-09T00:01:00.313Z,7.1
2022-11-09T00:02:00.507Z,7.1
2022-11-09T00:03:00.373Z,7.1
2022-11-09T00:04:00.345Z,7.1
2022-11-09T00:05:00.300Z,7.1
2022-11-09T00:06:00.321Z,7.1
2022-11-09T00:07:00.443Z,7.1
2022-11-09T00:08:00.470Z,7.1
2022-11-09T00:09:04.276Z,7.1
2022-11-09T00:10:00.497Z,7.1
2022-11-09T00:11:00.487Z,7.1
2022-11-09T00:12:00.294Z,7.1
2022-11-09T00:13:00.313Z,7.1
2022-11-09T00:14:00.560Z,7.1
2022-11-09T00:15:00.300Z,7.1
2022-11-09T00:16:00.290Z,7.1
2022-11-09T00:17:00.295Z,7.1
2022-11-09T00:18:00.316Z,7.1
2022-11-09T00:19:00.293Z,7.1
2022-11-09T00:22:00.450Z,7.0
2022-11-09T00:23:00.285Z,7.0
2022-11-09T00:24:00.295Z,7.0
2022-11-09T00:25:00.298Z,7.0
2022-11-09T00:26:00.410Z,7.0
2022-11-09T00:27:00.313Z,7.0
2022-11-09T00:28:00.432Z,7.0
2022-11-09T00:29:00.314Z,7.0
2022-11-09T00:30:00.313Z,7.0
2022-11-09T00:31:00.310Z,7.0
2022-11-09T00:32:00.298Z,7.0
2022-11-09T00:33:00.301Z,7.0
2022-11-09T00:34:00.437Z,7.0
2022-11-09T00:35:00.335Z,6.9
2022-11-09T00:36:00.308Z,6.9
2022-11-09T00:37:00.384Z,6.9
2022-11-09T00:38:00.417Z,6.9
2022-11-09T00:39:00.322Z,6.9
2022-11-09T00:40:00.485Z,6.9
2022-11-09T00:41:00.445Z,6.9
2022-11-09T00:42:00.363Z,6.9
2022-11-09T00:43:00.288Z,6.9
2022-11-09T00:44:00.285Z,6.9
2022-11-09T00:45:00.302Z,6.9
2022-11-09T00:46:00.449Z,6.9
2022-11-09T00:47:00.297Z,6.8
2022-11-09T00:48:00.294Z,6.8
2022-11-09T00:49:00.295Z,6.9
2022-11-09T00:50:00.309Z,6.8
2022-11-09T00:51:00.283Z,6.8
2022-11-09T00:52:00.431Z,6.8
2022-11-09T00:53:00.306Z,6.8
2022-11-09T00:54:00.296Z,6.8
2022-11-09T00:55:00.358Z,6.8
2022-11-09T00:56:00.342Z,6.8
2022-11-09T00:57:00.357Z,6.8
2022-11-09T00:58:00.435Z,6.8
2022-11-09T00:59:00.308Z,6.8
2022-11-09T01:00:00.386Z,6.8
2022-11-09T01:01:00.353Z,6.8
2022-11-09T01:02:00.354Z,6.8
2022-11-09T01:03:00.304Z,6.8
2022-11-09T01:04:00.506Z,6.8
2022-11-09T01:05:00.292Z,6.8
2022-11-09T01:06:00.298Z,6.8
2022-11-09T01:07:00.413Z,6.8
2022-11-09T01:08:00.309Z,6.8
2022-11-09T01:09:00.318Z,6.8
2022-11-09T01:10:00.491Z,6.8
2022-11-09T01:11:00.308Z,6.9
2022-11-09T01:12:00.786Z,6.9
2022-11-09T01:13:00.314Z,6.9
2022-11-09T01:14:00.297Z,6.9
2022-11-09T01:15:00.314Z,6.9
2022-11-09T01:16:00.440Z,6.8
2022-11-09T01:17:00.306Z,6.9
2022-11-09T01:18:00.296Z,6.8
2022-11-09T01:19:00.278Z,6.8
2022-11-09T01:20:00.329Z,6.8
2022-11-09T01:21:00.299Z,6.8
2022-11-09T01:22:00.441Z,6.8
2022-11-09T01:23:00.345Z,6.8
2022-11-09T01:24:00.315Z,6.8
2022-11-09T01:25:00.353Z,6.8
2022-11-09T01:26:00.336Z,6.8
2022-11-09T01:27:00.492Z,6.8
2022-11-09T01:28:00.483Z,6.7
2022-11-09T01:29:00.305Z,6.7
2022-11-09T01:30:00.319Z,6.7
2022-11-09T01:31:00.314Z,6.7
2022-11-09T01:32:00.280Z,6.7
2022-11-09T01:33:00.282Z,6.7
2022-11-09T01:34:00.438Z,6.6
2022-11-09T01:35:00.328Z,6.6
2022-11-09T01:36:00.283Z,6.6
2022-11-09T01:37:00.278Z,6.6
2022-11-09T01:38:00.308Z,6.6
2022-11-09T01:39:00.317Z,6.6
2022-11-09T01:40:00.453Z,6.5
2022-11-09T01:41:00.329Z,6.6
2022-11-09T01:42:00.407Z,6.5
2022-11-09T01:43:00.320Z,6.5
2022-11-09T01:44:00.322Z,6.5
2022-11-09T01:45:00.331Z,6.4
2022-11-09T01:46:00.426Z,6.4
2022-11-09T01:47:00.323Z,6.4
2022-11-09T01:48:00.343Z,6.4
2022-11-09T01:49:00.296Z,6.5
2022-11-09T01:50:00.313Z,6.4
2022-11-09T01:51:00.297Z,6.4
2022-11-09T01:52:00.428Z,6.4
2022-11-09T01:53:00.320Z,6.3
2022-11-09T01:54:00.299Z,6.3
2022-11-09T01:55:00.310Z,6.3
2022-11-09T01:56:00.316Z,6.3
2022-11-09T01:57:00.347Z,6.3
2022-11-09T01:58:00.443Z,6.3
2022-11-09T01:59:00.295Z,6.3
2022-11-09T02:00:00.323Z,6.3
2022-11-09T02:01:00.411Z,6.3
2022-11-09T02:02:00.284Z,6.3
2022-11-09T02:03:00.304Z,6.3
2022-11-09T02:04:00.420Z,6.3
2022-11-09T02:05:00.281Z,6.3
2022-11-09T02:06:00.307Z,6.3
2022-11-09T02:07:00.406Z,6.3
2022-11-09T02:08:00.308Z,6.3
2022-11-09T02:09:00.318Z,6.3
2022-11-09T02:10:00.450Z,6.3
2022-11-09T02:11:00.297Z,6.3
2022-11-09T02:12:00.308Z,6.3
2022-11-09T02:13:00.354Z,6.3
2022-11-09T02:14:00.293Z,6.3
2022-11-09T02:15:00.358Z,6.3
2022-11-09T02:16:00.455Z,6.3
2022-11-09T02:17:00.316Z,6.3
2022-11-09T02:18:00.358Z,6.3
2022-11-09T02:19:00.373Z,6.4
2022-11-09T02:20:00.333Z,6.4
2022-11-09T02:21:00.299Z,6.4
2022-11-09T02:22:00.477Z,6.4
2022-11-09T02:23:00.295Z,6.4
2022-11-09T02:24:00.309Z,6.4
2022-11-09T02:25:00.314Z,6.4
2022-11-09T02:26:00.322Z,6.4
2022-11-09T02:27:00.335Z,6.4
2022-11-09T02:28:00.459Z,6.4
2022-11-09T02:29:00.292Z,6.4
2022-11-09T02:30:00.302Z,6.4
2022-11-09T02:31:00.316Z,6.4
2022-11-09T02:32:00.302Z,6.4
2022-11-09T02:33:00.308Z,6.4
2022-11-09T02:34:00.516Z,6.4
2022-11-09T02:35:00.298Z,6.4
2022-11-09T02:36:00.298Z,6.4
2022-11-09T02:37:00.302Z,6.5
2022-11-09T02:38:00.301Z,6.5
2022-11-09T02:39:00.283Z,6.5
2022-11-09T02:40:00.453Z,6.5
2022-11-09T02:41:00.310Z,6.5
2022-11-09T02:42:02.896Z,6.5
2022-11-09T02:43:00.295Z,6.5
2022-11-09T02:44:00.439Z,6.5
2022-11-09T02:45:00.331Z,6.5
2022-11-09T02:46:00.387Z,6.5
2022-11-09T02:47:00.349Z,6.5
2022-11-09T02:48:00.330Z,6.5
2022-11-09T02:49:00.297Z,6.5
2022-11-09T02:50:00.285Z,6.5
2022-11-09T02:51:00.338Z,6.5
2022-11-09T02:52:00.521Z,6.5
2022-11-09T02:53:00.374Z,6.5
2022-11-09T02:54:00.384Z,6.5
2022-11-09T02:55:00.307Z,6.5
2022-11-09T02:56:00.342Z,6.5
2022-11-09T02:57:00.375Z,6.5
2022-11-09T02:58:00.479Z,6.6
2022-11-09T02:59:00.331Z,6.6
2022-11-09T03:00:00.383Z,6.6
2022-11-09T03:01:00.477Z,6.6
2022-11-09T03:02:00.279Z,6.6
2022-11-09T03:03:00.307Z,6.6
2022-11-09T03:04:00.549Z,6.6
2022-11-09T03:05:00.290Z,6.7
2022-11-09T03:06:00.296Z,6.7
2022-11-09T03:07:00.452Z,6.7
2022-11-09T03:08:00.298Z,6.7
2022-11-09T03:09:00.299Z,6.7
2022-11-09T03:10:00.524Z,6.8
2022-11-09T03:11:00.312Z,6.8
2022-11-09T03:12:00.283Z,6.8
2022-11-09T03:13:00.300Z,6.8
2022-11-09T03:14:00.353Z,6.8
2022-11-09T03:15:00.432Z,6.8
2022-11-09T03:16:00.577Z,6.8
2022-11-09T03:17:00.307Z,6.8
2022-11-09T03:18:00.316Z,6.8
2022-11-09T03:19:00.296Z,6.8
2022-11-09T03:20:00.296Z,6.8
2022-11-09T03:21:00.315Z,6.8
2022-11-09T03:22:00.443Z,6.8
2022-11-09T03:23:00.301Z,6.8
2022-11-09T03:24:00.299Z,6.8
2022-11-09T03:25:00.355Z,6.8
2022-11-09T03:26:00.341Z,6.8
2022-11-09T03:27:00.303Z,6.8
2022-11-09T03:28:00.435Z,6.8
2022-11-09T03:29:00.279Z,6.8
2022-11-09T03:30:00.434Z,6.9
2022-11-09T03:31:00.394Z,6.9
2022-11-09T03:32:00.329Z,6.9
2022-11-09T03:33:00.316Z,6.9
2022-11-09T03:34:00.558Z,6.9
2022-11-09T03:35:00.311Z,6.9
2022-11-09T03:36:00.303Z,6.9
2022-11-09T03:37:00.277Z,7.0
2022-11-09T03:38:00.402Z,7.0
2022-11-09T03:39:00.310Z,7.0
2022-11-09T03:40:00.414Z,7.0
2022-11-09T03:41:00.307Z,7.0
2022-11-09T03:42:00.298Z,7.0
2022-11-09T03:43:00.290Z,7.0
2022-11-09T03:44:00.300Z,7.0
2022-11-09T03:45:00.408Z,7.1
2022-11-09T03:46:00.395Z,7.1
2022-11-09T03:47:00.310Z,7.1
2022-11-09T03:48:00.312Z,7.1
2022-11-09T03:49:00.307Z,7.1
2022-11-09T03:50:00.301Z,7.1
2022-11-09T03:51:00.300Z,7.1
2022-11-09T03:52:00.491Z,7.1
2022-11-09T03:53:00.309Z,7.2
2022-11-09T03:54:00.317Z,7.2
2022-11-09T03:55:00.300Z,7.2
2022-11-09T03:56:00.301Z,7.2
2022-11-09T03:57:00.311Z,7.2
2022-11-09T03:58:00.591Z,7.3
2022-11-09T03:59:00.310Z,7.3
2022-11-09T04:00:00.339Z,7.3
2022-11-09T04:01:00.344Z,7.3
2022-11-09T04:02:00.402Z,7.3
2022-11-09T04:03:00.297Z,7.3
2022-11-09T04:04:00.417Z,7.3
2022-11-09T04:05:00.355Z,7.4
2022-11-09T04:06:00.372Z,7.4
2022-11-09T04:07:00.462Z,7.4
2022-11-09T04:08:00.353Z,7.4
2022-11-09T04:09:00.362Z,7.4
2022-11-09T04:10:00.447Z,7.4
2022-11-09T04:11:00.361Z,7.5
2022-11-09T04:12:00.397Z,7.5
2022-11-09T04:13:00.340Z,7.5
2022-11-09T04:14:00.335Z,7.5
2022-11-09T04:15:00.542Z,7.5
2022-11-09T04:16:00.398Z,7.6
2022-11-09T04:17:00.306Z,7.6
2022-11-09T04:18:00.283Z,7.6
2022-11-09T04:19:00.291Z,7.6
2022-11-09T04:20:00.318Z,7.6
2022-11-09T04:21:00.312Z,7.7
2022-11-09T04:22:00.453Z,7.7
2022-11-09T04:23:00.297Z,7.7
2022-11-09T04:24:00.294Z,7.7
2022-11-09T04:25:00.308Z,7.7
2022-11-09T04:26:00.296Z,7.7
2022-11-09T04:27:00.304Z,7.7
2022-11-09T04:28:00.663Z,7.7
2022-11-09T04:29:00.298Z,7.7
2022-11-09T04:30:00.392Z,7.8
2022-11-09T04:31:00.299Z,7.8
2022-11-09T04:32:00.319Z,7.8
2022-11-09T04:33:00.299Z,7.8
2022-11-09T04:34:00.433Z,7.8
2022-11-09T04:35:00.309Z,7.9
2022-11-09T04:36:00.280Z,7.9
2022-11-09T04:37:00.299Z,7.9
2022-11-09T04:38:00.334Z,7.9
2022-11-09T04:39:00.288Z,7.9
2022-11-09T04:40:00.475Z,7.9
2022-11-09T04:41:00.339Z,8.0
2022-11-09T04:42:00.317Z,8.0
2022-11-09T04:43:00.301Z,8.1
2022-11-09T04:44:00.415Z,8.1
2022-11-09T04:45:00.499Z,8.1
2022-11-09T04:46:00.534Z,8.2
2022-11-09T04:47:00.366Z,8.2
2022-11-09T04:48:00.306Z,8.2
2022-11-09T04:49:00.359Z,8.2
2022-11-09T04:50:00.315Z,8.3
2022-11-09T04:51:00.331Z,8.3
2022-11-09T04:52:00.487Z,8.3
2022-11-09T04:53:05.280Z,8.3
2022-11-09T04:54:00.316Z,8.3
2022-11-09T04:55:00.318Z,8.3
2022-11-09T04:56:00.366Z,8.3
2022-11-09T04:57:00.312Z,8.3
2022-11-09T04:58:00.447Z,8.3
2022-11-09T04:59:00.309Z,8.2
2022-11-09T05:00:00.445Z,8.2
2022-11-09T05:01:00.398Z,8.2
2022-11-09T05:02:00.375Z,8.3
2022-11-09T05:03:00.302Z,8.3
2022-11-09T05:04:00.575Z,8.3
2022-11-09T05:05:00.285Z,8.3
2022-11-09T05:06:00.362Z,8.3
2022-11-09T05:07:00.373Z,8.3
2022-11-09T05:08:00.310Z,8.3
2022-11-09T05:09:00.288Z,8.3
2022-11-09T05:10:00.676Z,8.4
2022-11-09T05:11:00.566Z,8.4
2022-11-09T05:12:00.611Z,8.4
2022-11-09T05:13:00.663Z,8.4
2022-11-09T05:14:00.598Z,8.4
2022-11-09T05:15:00.539Z,8.5
2022-11-09T05:16:00.464Z,8.5
2022-11-09T05:17:00.768Z,8.6
2022-11-09T05:18:00.367Z,8.6
2022-11-09T05:19:00.341Z,8.6
2022-11-09T05:20:00.508Z,8.6
2022-11-09T05:21:00.316Z,8.6
2022-11-09T05:22:00.433Z,8.6
2022-11-09T05:23:00.283Z,8.7
2022-11-09T05:24:00.520Z,8.7
2022-11-09T05:25:00.311Z,8.8
2022-11-09T05:26:00.316Z,8.8
2022-11-09T05:27:00.301Z,8.8
2022-11-09T05:28:00.443Z,8.9
2022-11-09T05:29:00.296Z,8.9
2022-11-09T05:30:00.393Z,8.9
2022-11-09T05:31:00.282Z,9.0
2022-11-09T05:32:00.333Z,9.0
2022-11-09T05:33:00.336Z,9.1
2022-11-09T05:34:00.500Z,9.1
2022-11-09T05:35:00.283Z,9.1
2022-11-09T05:36:00.294Z,9.2
2022-11-09T05:37:03.549Z,9.3
2022-11-09T05:38:00.294Z,9.3
2022-11-09T05:39:00.309Z,9.3
2022-11-09T05:40:00.449Z,9.5
2022-11-09T05:41:00.295Z,9.6
2022-11-09T05:42:00.310Z,9.6
2022-11-09T05:43:00.324Z,9.7
2022-11-09T05:44:00.298Z,9.8
2022-11-09T05:45:20.972Z,10.0
2022-11-09T05:46:06.271Z,10.2
2022-11-09T05:47:00.284Z,10.5
2022-11-09T05:48:00.292Z,11.1
2022-11-09T05:49:00.298Z,11.6
2022-11-09T05:50:00.321Z,11.6
2022-11-09T05:51:00.299Z,11.9
2022-11-09T05:52:00.465Z,12.8
2022-11-09T05:53:00.350Z,15.1
2022-11-09T05:54:00.327Z,17.1
2022-11-09T05:55:00.299Z,19.2
2022-11-09T05:56:00.298Z,20.3
2022-11-09T05:57:00.293Z,21.1
2022-11-09T05:58:00.444Z,21.9
2022-11-09T05:59:00.296Z,23.1
2022-11-09T06:00:00.315Z,23.9
2022-11-09T06:01:00.430Z,24.5
2022-11-09T06:02:00.452Z,24.9
2022-11-09T06:03:00.311Z,25.2
2022-11-09T06:04:00.442Z,25.8
2022-11-09T06:05:00.303Z,26.3
2022-11-09T06:06:05.234Z,26.5
2022-11-09T06:07:00.343Z,26.8
2022-11-09T06:08:00.302Z,27.2
2022-11-09T06:09:00.296Z,27.4
2022-11-09T06:10:00.436Z,27.4
2022-11-09T06:11:00.352Z,27.5
2022-11-09T06:12:00.315Z,27.8
2022-11-09T06:13:00.364Z,27.9
2022-11-09T06:14:00.376Z,27.8
2022-11-09T06:15:00.369Z,27.5
2022-11-09T06:16:00.567Z,27.1
2022-11-09T06:17:00.285Z,25.4
2022-11-09T06:18:00.382Z,23.2
2022-11-09T06:19:00.298Z,21.6
2022-11-09T06:20:00.301Z,20.6
2022-11-09T06:21:00.310Z,19.8
2022-11-09T06:22:00.479Z,19.1
2022-11-09T06:23:03.448Z,18.4
2022-11-09T06:24:00.326Z,17.7
2022-11-09T06:25:00.292Z,17.2
2022-11-09T06:26:00.324Z,16.8
2022-11-09T06:27:00.301Z,16.5
2022-11-09T06:28:00.458Z,16.2
2022-11-09T06:29:00.317Z,15.9
2022-11-09T06:30:00.314Z,15.4
2022-11-09T06:31:00.462Z,15.1
2022-11-09T06:32:00.380Z,14.9
2022-11-09T06:33:00.348Z,14.8
2022-11-09T06:34:00.556Z,14.8
2022-11-09T06:35:00.313Z,14.7
2022-11-09T06:36:00.306Z,14.7
2022-11-09T06:37:00.297Z,14.7
2022-11-09T06:38:00.360Z,14.7
2022-11-09T06:39:00.288Z,14.7
2022-11-09T06:40:00.596Z,14.7
2022-11-09T06:41:00.335Z,14.8
2022-11-09T06:42:00.316Z,14.7
2022-11-09T06:43:00.309Z,14.6
2022-11-09T06:44:00.281Z,14.6
2022-11-09T06:45:00.310Z,14.7
2022-11-09T06:46:00.436Z,14.7
2022-11-09T06:47:00.448Z,14.8
2022-11-09T06:48:00.326Z,14.9
2022-11-09T06:49:00.403Z,14.9
2022-11-09T06:50:00.360Z,15.0
2022-11-09T06:51:00.312Z,15.1
2022-11-09T06:52:00.526Z,15.2
2022-11-09T06:53:00.359Z,15.3
2022-11-09T06:54:00.293Z,15.6
2022-11-09T06:55:00.377Z,15.7
2022-11-09T06:56:00.291Z,15.8
2022-11-09T06:57:00.322Z,16.0
2022-11-09T06:58:00.594Z,16.1
2022-11-09T06:59:00.327Z,16.0
2022-11-09T07:00:00.356Z,15.8
2022-11-09T07:01:00.342Z,15.7
2022-11-09T07:02:01.821Z,15.6
2022-11-09T07:03:00.323Z,15.5
2022-11-09T07:04:00.419Z,15.5
2022-11-09T07:05:00.288Z,15.4
2022-11-09T07:06:00.305Z,15.3
2022-11-09T14:08:02.366Z,10.8
2022-11-09T14:09:00.299Z,10.7
2022-11-09T14:10:00.296Z,10.7
2022-11-09T14:11:00.301Z,10.7
2022-11-09T14:12:00.322Z,10.7
2022-11-09T14:13:00.301Z,10.6
2022-11-09T14:14:03.159Z,10.6
2022-11-09T14:15:00.307Z,10.6
2022-11-09T14:16:00.295Z,10.6
2022-11-09T14:17:00.323Z,10.6
2022-11-09T14:18:00.338Z,10.6
2022-11-09T14:19:00.364Z,10.6
2022-11-09T14:20:00.436Z,10.6
2022-11-09T14:21:00.300Z,10.6
2022-11-09T14:22:00.302Z,10.6
2022-11-09T14:23:00.306Z,10.6
2022-11-09T14:24:00.475Z,10.5
2022-11-09T14:25:00.341Z,10.5
2022-11-09T14:26:00.434Z,10.5
2022-11-09T14:27:00.377Z,10.5
2022-11-09T14:28:00.393Z,10.5
2022-11-09T14:29:00.313Z,10.5
2022-11-09T14:30:00.300Z,10.4
2022-11-09T14:31:00.306Z,10.4
2022-11-09T14:32:00.530Z,10.4
2022-11-09T14:33:00.297Z,10.4
2022-11-09T14:34:00.292Z,10.4
2022-11-09T14:35:00.299Z,10.3
2022-11-09T14:36:00.293Z,10.3
2022-11-09T14:37:04.706Z,10.3
2022-11-09T14:38:00.414Z,10.3
2022-11-09T14:39:00.408Z,10.3
2022-11-09T14:40:00.430Z,10.2
2022-11-09T14:41:00.295Z,10.2
2022-11-09T14:42:00.291Z,10.2
2022-11-09T14:43:00.308Z,10.2
2022-11-09T14:44:00.513Z,10.2
2022-11-09T14:45:00.295Z,10.2
2022-11-09T14:46:00.360Z,10.2
2022-11-09T14:47:00.294Z,10.2
2022-11-09T14:48:00.299Z,10.2
2022-11-09T14:49:00.294Z,10.2
2022-11-09T14:50:00.404Z,10.2
2022-11-09T14:51:00.302Z,10.2
2022-11-09T14:52:00.293Z,10.2
2022-11-09T14:53:00.286Z,10.2
2022-11-09T14:54:00.292Z,10.2
2022-11-09T14:55:00.387Z,10.2
2022-11-09T14:56:00.515Z,10.2
2022-11-09T14:57:00.296Z,10.1
2022-11-09T14:58:00.293Z,10.1
2022-11-09T14:59:00.290Z,10.1
2022-11-09T15:00:00.292Z,10.1
2022-11-09T15:01:00.306Z,10.1
2022-11-09T15:02:00.426Z,10.1
2022-11-09T15:03:00.357Z,10.0
2022-11-09T15:04:00.369Z,10.0
2022-11-09T15:05:00.328Z,10.0
2022-11-09T15:06:00.352Z,10.0
2022-11-09T15:07:00.510Z,10.0
2022-11-09T15:08:00.681Z,10.0
2022-11-09T15:09:00.288Z,10.0
2022-11-09T15:10:00.359Z,10.0
2022-11-09T15:11:02.454Z,10.0
2022-11-09T15:12:00.324Z,9.9
2022-11-09T15:13:00.293Z,9.9
2022-11-09T15:14:00.488Z,9.9
2022-11-09T15:15:00.316Z,9.9
2022-11-09T15:16:00.285Z,9.9
2022-11-09T15:17:00.294Z,9.9
2022-11-09T15:18:00.316Z,9.9
2022-11-09T15:19:00.409Z,9.9
2022-11-09T15:20:00.514Z,9.9
2022-11-09T15:21:00.547Z,9.9
2022-11-09T15:22:00.309Z,9.9
2022-11-09T15:23:00.295Z,9.9
2022-11-09T15:24:00.289Z,9.8
2022-11-09T15:25:00.326Z,9.9
2022-11-09T15:26:00.589Z,9.9
2022-11-09T15:27:00.409Z,9.9
2022-11-09T15:28:00.293Z,9.9
2022-11-09T15:29:00.292Z,9.9
2022-11-09T15:30:00.298Z,9.9
2022-11-09T15:31:00.284Z,9.9
2022-11-09T15:32:00.475Z,9.9
2022-11-09T15:33:00.299Z,9.9
2022-11-09T15:34:00.314Z,9.9
2022-11-09T15:35:00.327Z,9.9
2022-11-09T15:36:00.302Z,9.8
2022-11-09T15:37:00.318Z,9.8
2022-11-09T15:38:00.440Z,9.8
2022-11-09T15:39:00.316Z,9.8
2022-11-09T15:40:00.328Z,9.8
2022-11-09T15:41:00.284Z,9.7
2022-11-09T15:42:00.554Z,9.7
2022-11-09T15:43:00.316Z,9.8
2022-11-09T15:44:00.427Z,9.8
2022-11-09T15:45:00.499Z,9.8
2022-11-09T15:46:00.302Z,9.8
2022-11-09T15:47:00.708Z,9.8
2022-11-09T15:48:00.286Z,9.8
2022-11-09T15:49:00.284Z,9.8
2022-11-09T15:50:00.438Z,9.8
2022-11-09T15:51:00.364Z,9.8
2022-11-09T15:52:00.282Z,9.7
2022-11-09T15:53:00.372Z,9.7
2022-11-09T15:54:00.296Z,9.7
2022-11-09T15:55:00.349Z,9.7
2022-11-09T15:56:00.727Z,9.7
2022-11-09T15:57:00.298Z,9.7
2022-11-09T15:58:01.908Z,9.7
2022-11-09T15:59:00.346Z,9.7
2022-11-09T16:00:00.291Z,9.8
2022-11-09T16:01:00.477Z,9.8
2022-11-09T16:02:00.471Z,9.8
2022-11-09T16:03:00.293Z,9.8
2022-11-09T16:04:00.311Z,9.8
2022-11-09T16:05:00.298Z,9.8
2022-11-09T16:06:00.304Z,9.8
2022-11-09T16:07:00.321Z,9.8
2022-11-09T16:08:00.413Z,9.9
2022-11-09T16:09:00.369Z,9.9
2022-11-09T16:10:00.345Z,9.9
2022-11-09T16:11:00.363Z,9.9
2022-11-09T16:12:00.298Z,9.9
2022-11-09T16:13:00.305Z,9.9
2022-11-09T16:14:00.427Z,9.9
2022-11-09T16:15:00.321Z,9.9
2022-11-09T16:16:00.302Z,9.9
2022-11-09T16:17:00.296Z,9.9
2022-11-09T16:18:00.303Z,9.9
2022-11-09T16:19:00.291Z,9.9
2022-11-09T16:20:00.409Z,9.9
2022-11-09T16:21:00.296Z,9.9
2022-11-09T16:22:00.300Z,9.9
2022-11-09T16:23:00.294Z,9.9
2022-11-09T16:24:00.288Z,9.9
2022-11-09T16:25:00.299Z,10.0
2022-11-09T16:26:00.395Z,10.0
2022-11-09T16:27:00.337Z,10.0
2022-11-09T16:28:00.469Z,10.0
2022-11-09T16:29:00.493Z,10.1
2022-11-09T16:30:00.442Z,10.1
2022-11-09T16:31:00.309Z,10.2
2022-11-09T16:32:02.440Z,10.3
2022-11-09T16:33:00.306Z,10.5
2022-11-09T16:34:00.292Z,10.6
2022-11-09T16:35:25.670Z,10.7
2022-11-09T16:36:00.352Z,10.8
2022-11-09T16:37:00.315Z,10.8
2022-11-09T16:38:00.406Z,10.8
2022-11-09T16:39:00.292Z,10.8
2022-11-09T16:40:00.325Z,10.8
2022-11-09T16:41:00.291Z,10.8
2022-11-09T16:42:00.292Z,10.8
2022-11-09T16:43:00.336Z,10.8
2022-11-09T16:44:00.411Z,10.7
2022-11-09T16:45:00.314Z,10.6
2022-11-09T16:46:02.428Z,10.6
2022-11-09T16:47:00.292Z,10.5
2022-11-09T16:48:00.297Z,10.4
2022-11-09T16:49:00.299Z,10.4
2022-11-09T16:50:00.452Z,10.4
2022-11-09T16:52:00.294Z,10.3
2022-11-09T16:53:00.287Z,10.2
2022-11-09T16:54:00.303Z,10.1
2022-11-09T16:55:00.291Z,10.1
2022-11-09T16:56:01.306Z,10.0
2022-11-09T16:57:00.319Z,9.9
2022-11-09T16:58:00.292Z,9.9
2022-11-09T16:59:00.290Z,9.8
2022-11-09T17:00:00.549Z,9.8
2022-11-09T17:01:12.327Z,9.8
2022-11-09T17:02:00.622Z,9.8
2022-11-09T17:03:00.281Z,9.8
2022-11-09T17:04:00.310Z,9.8
2022-11-09T17:05:00.304Z,9.8
2022-11-09T17:06:00.292Z,9.8
2022-11-09T17:07:00.474Z,9.8
2022-11-09T17:08:00.450Z,9.7
2022-11-09T17:09:00.308Z,9.7
2022-11-09T17:10:00.357Z,9.7
2022-11-09T17:11:00.387Z,9.7
2022-11-09T17:12:00.364Z,9.7
2022-11-09T17:13:00.355Z,9.6
2022-11-09T17:14:00.450Z,9.6
2022-11-09T17:15:00.287Z,9.6
2022-11-09T17:16:00.312Z,9.6
2022-11-09T17:17:00.328Z,9.6
2022-11-09T17:18:02.397Z,9.7
2022-11-09T17:19:00.293Z,9.7
2022-11-09T17:20:00.449Z,9.8
2022-11-09T17:21:00.323Z,9.9
2022-11-09T17:22:00.329Z,10.1
2022-11-09T17:23:00.294Z,10.1
2022-11-09T17:24:00.364Z,10.3
2022-11-09T17:25:00.291Z,10.4
2022-11-09T17:26:00.441Z,10.4
2022-11-09T17:27:00.293Z,10.4
2022-11-09T17:28:00.335Z,10.3
2022-11-09T17:29:00.365Z,10.3
2022-11-09T17:30:00.298Z,10.3
2022-11-09T17:31:00.294Z,10.4
2022-11-09T17:32:00.438Z,10.6
2022-11-09T17:33:00.295Z,10.6
2022-11-09T17:34:01.499Z,10.5
2022-11-09T17:35:00.313Z,10.4
2022-11-09T17:36:00.300Z,10.3
2022-11-09T17:37:05.252Z,10.2
2022-11-09T17:38:00.441Z,10.2
2022-11-09T17:39:00.300Z,10.1
2022-11-09T17:40:00.292Z,10.1
2022-11-09T17:41:00.289Z,10.1
2022-11-09T17:42:00.296Z,10.0
2022-11-09T17:43:00.305Z,10.0
2022-11-09T17:44:00.403Z,10.0
2022-11-09T17:45:00.293Z,10.0
2022-11-09T17:46:00.307Z,10.0
2022-11-09T17:47:00.278Z,10.0
2022-11-09T17:48:00.309Z,10.0
2022-11-09T17:49:00.553Z,10.0
2022-11-09T17:50:00.389Z,10.0
2022-11-09T17:51:00.348Z,10.0
2022-11-09T17:52:00.305Z,10.0
2022-11-09T17:53:00.316Z,9.9
2022-11-09T17:54:00.297Z,9.9
2022-11-09T17:55:00.319Z,9.9
2022-11-09T17:56:01.075Z,9.9
2022-11-09T17:57:00.489Z,9.9
2022-11-09T17:58:00.295Z,9.8
2022-11-09T17:59:00.453Z,9.8
2022-11-09T18:00:00.760Z,9.8
2022-11-09T18:01:00.801Z,9.8
2022-11-09T18:02:00.598Z,9.8
2022-11-09T18:03:00.493Z,9.8
2022-11-09T18:04:04.240Z,9.8
2022-11-09T18:05:00.291Z,9.8
2022-11-09T18:06:00.295Z,9.8
2022-11-09T18:07:00.381Z,9.8
2022-11-09T18:08:00.613Z,9.8
2022-11-09T18:09:34.471Z,9.8
2022-11-09T18:10:00.285Z,9.9
2022-11-09T18:11:00.380Z,9.9
2022-11-09T18:12:00.289Z,9.8
2022-11-09T18:13:00.294Z,9.9
2022-11-09T18:14:00.429Z,9.9
2022-11-09T18:15:00.318Z,9.9
2022-11-09T18:16:00.298Z,9.9
2022-11-09T18:17:00.304Z,9.9
2022-11-09T18:18:00.286Z,9.9
2022-11-09T18:19:00.484Z,9.9
2022-11-09T18:20:00.462Z,9.8
2022-11-09T18:21:00.293Z,9.8
2022-11-09T18:22:02.990Z,9.8
2022-11-09T18:23:00.292Z,9.8
2022-11-09T18:24:00.284Z,9.8
2022-11-09T18:25:00.300Z,9.8
2022-11-09T18:26:00.453Z,9.8
2022-11-09T18:27:00.296Z,9.8
2022-11-09T18:28:00.309Z,9.8
2022-11-09T18:29:00.327Z,9.8
2022-11-09T18:30:00.290Z,9.8
2022-11-09T18:31:00.291Z,9.8
2022-11-09T18:32:00.533Z,9.8
2022-11-09T18:33:00.285Z,9.9
2022-11-09T18:34:00.326Z,9.9
2022-11-09T18:35:02.415Z,9.9
2022-11-09T18:36:00.288Z,9.9
2022-11-09T18:37:00.298Z,9.9
2022-11-09T18:38:00.494Z,9.9
2022-11-09T18:39:00.370Z,9.9
2022-11-09T18:40:00.304Z,9.9
2022-11-09T18:41:00.366Z,9.9
2022-11-09T18:42:00.397Z,9.9
2022-11-09T18:43:00.320Z,9.9
2022-11-09T18:44:02.758Z,9.9
2022-11-09T18:45:00.360Z,9.9
2022-11-09T18:46:00.424Z,9.9
2022-11-09T18:47:05.038Z,10.0
2022-11-09T18:48:00.394Z,10.0
2022-11-09T18:49:00.333Z,10.1
2022-11-09T18:50:00.531Z,10.1
2022-11-09T18:51:00.338Z,10.1
2022-11-09T18:52:00.366Z,10.2
2022-11-09T18:53:00.387Z,10.2
2022-11-09T18:54:00.409Z,10.2
2022-11-09T18:55:00.472Z,10.3
2022-11-09T18:56:06.072Z,10.3
2022-11-09T18:57:00.445Z,10.4
2022-11-09T18:58:00.326Z,10.6
2022-11-09T18:59:00.406Z,10.6
2022-11-09T19:00:00.459Z,10.8
2022-11-09T19:01:00.564Z,10.7
2022-11-09T19:02:00.534Z,10.7
2022-11-09T19:03:00.364Z,10.7
2022-11-09T19:04:00.346Z,10.7
2022-11-09T19:05:00.334Z,10.6
2022-11-09T19:06:00.337Z,10.6
2022-11-09T19:07:00.400Z,10.5
2022-11-09T19:08:00.593Z,10.5
2022-11-09T19:09:00.315Z,10.4
2022-11-09T19:10:00.444Z,10.4
2022-11-09T19:11:00.349Z,10.4
2022-11-09T19:12:00.369Z,10.4
2022-11-09T19:13:00.377Z,10.4
2022-11-09T19:14:00.516Z,10.3
2022-11-09T19:15:00.387Z,10.3
2022-11-09T19:16:02.917Z,10.2
2022-11-09T19:17:00.417Z,10.2
2022-11-09T19:18:00.404Z,10.2
2022-11-09T19:19:00.670Z,10.1
2022-11-09T19:20:00.611Z,10.1
2022-11-09T19:21:00.317Z,10.1
2022-11-09T19:22:00.444Z,10.1
2022-11-09T19:23:00.404Z,10.1
2022-11-09T19:24:00.468Z,10.2
2022-11-09T19:25:00.410Z,10.2
2022-11-09T19:26:00.518Z,10.2
2022-11-09T19:27:00.335Z,10.2
2022-11-09T19:28:00.366Z,10.2
2022-11-09T19:29:00.427Z,10.3
2022-11-09T19:30:04.733Z,10.3
2022-11-09T19:31:00.363Z,10.2
2022-11-09T19:32:00.496Z,10.2
2022-11-09T19:33:00.303Z,10.2
2022-11-09T19:34:00.304Z,10.2
2022-11-09T19:35:00.316Z,10.1
2022-11-09T19:36:28.528Z,10.1
2022-11-09T19:37:00.320Z,10.1
2022-11-09T19:38:06.010Z,10.0
2022-11-09T19:39:00.309Z,10.0
2022-11-09T19:40:00.306Z,10.0
2022-11-09T19:41:00.318Z,10.0
2022-11-09T19:42:00.302Z,10.0
2022-11-09T19:43:00.311Z,10.0
2022-11-09T19:44:00.461Z,10.0
2022-11-09T19:45:00.305Z,10.0
2022-11-09T19:46:00.309Z,10.0
2022-11-09T19:47:00.447Z,10.0
2022-11-09T19:48:00.295Z,9.9
2022-11-09T19:49:00.302Z,9.9
2022-11-09T19:50:00.526Z,9.9
2022-11-09T19:51:00.285Z,9.9
2022-11-09T19:52:00.305Z,9.9
2022-11-09T19:53:00.332Z,9.9
2022-11-09T19:54:00.299Z,9.9
2022-11-09T19:55:00.324Z,9.9
2022-11-09T19:56:00.453Z,9.9
2022-11-09T19:57:00.312Z,9.9
2022-11-09T19:58:00.351Z,9.9
2022-11-09T19:59:00.371Z,9.9
2022-11-09T20:00:00.409Z,9.9
2022-11-09T20:01:00.409Z,9.9
2022-11-09T20:02:00.484Z,9.9
2022-11-09T20:03:00.314Z,9.9
2022-11-09T20:04:00.366Z,9.9
2022-11-09T20:05:00.285Z,9.9
2022-11-09T20:06:00.386Z,9.8
2022-11-09T20:07:00.426Z,9.8
2022-11-09T20:08:00.688Z,9.8
2022-11-09T20:09:00.334Z,9.8
2022-11-09T20:10:00.357Z,9.8
2022-11-09T20:11:00.399Z,9.7
2022-11-09T20:12:00.303Z,9.7
2022-11-09T20:13:00.372Z,9.7
2022-11-09T20:14:00.644Z,9.7
2022-11-09T20:15:00.308Z,9.7
2022-11-09T20:16:00.320Z,9.7
2022-11-09T20:17:03.410Z,9.6
2022-11-09T20:18:00.372Z,9.6
2022-11-09T20:19:00.316Z,9.6
2022-11-09T20:20:00.675Z,9.6
2022-11-09T20:21:00.363Z,9.6
2022-11-09T20:22:00.397Z,9.6
2022-11-09T20:23:00.377Z,9.6
2022-11-09T20:24:00.302Z,9.6
2022-11-09T20:25:00.301Z,9.6
2022-11-09T20:26:00.487Z,9.6
2022-11-09T20:27:00.372Z,9.6
2022-11-09T20:28:00.351Z,9.6
2022-11-09T20:29:00.340Z,9.6
2022-11-09T20:30:00.370Z,9.6
2022-11-09T20:31:00.319Z,9.6
2022-11-09T20:32:00.492Z,9.6
2022-11-09T20:33:00.378Z,9.6
2022-11-09T20:34:00.315Z,9.6
2022-11-09T20:35:00.372Z,9.5
2022-11-09T20:36:00.367Z,9.5
2022-11-09T20:37:00.312Z,9.5
2022-11-09T20:38:00.658Z,9.5
2022-11-09T20:39:00.299Z,9.5
2022-11-09T20:40:00.309Z,9.5